createdAt,value
2019-01-06T00:02:18.484Z,95.46
2019-01-06T00:05:17.010Z,95.92
2019-01-06T00:08:05.208Z,96.02
2019-01-06T00:10:54.895Z,96.16
2019-01-06T00:13:43.332Z,96.15
2019-01-06T00:16:33.446Z,96.03
2019-01-06T00:19:22.935Z,95.99
2019-01-06T00:22:11.345Z,96.10
2019-01-06T00:24:59.574Z,96.00
2019-01-06T00:27:57.384Z,95.86
2019-01-06T00:30:49.804Z,95.96
2019-01-06T00:33:42.084Z,95.61
2019-01-06T00:36:31.643Z,95.50
2019-01-06T00:39:21.114Z,95.57
2019-01-06T01:12:09.160Z,95.39
2019-01-06T01:15:04.825Z,95.49
2019-01-06T01:17:54.428Z,95.56
2019-01-06T01:20:43.233Z,95.60
2019-01-06T01:23:28.671Z,95.72
2019-01-06T01:26:16.637Z,95.83
2019-01-06T01:29:15.342Z,96.02
2019-01-06T01:32:11.676Z,95.92
2019-01-06T01:35:04.803Z,95.85
2019-01-06T01:37:57.008Z,95.68
2019-01-06T01:40:39.239Z,95.90
2019-01-06T01:43:40.971Z,95.96
2019-01-06T01:46:39.335Z,95.91
2019-01-06T01:49:31.809Z,95.87
2019-01-06T01:52:24.016Z,95.90
2019-01-06T01:55:22.683Z,95.78
2019-01-06T01:58:10.715Z,95.82
2019-01-06T02:00:58.952Z,95.83
2019-01-06T02:03:41.764Z,95.77
2019-01-06T02:06:39.935Z,95.80
2019-01-06T02:09:45.016Z,95.72
2019-01-06T02:12:26.371Z,95.80
2019-01-06T02:15:14.468Z,95.94
2019-01-06T02:18:01.744Z,95.90
2019-01-06T02:20:53.461Z,95.78
2019-01-06T02:23:51.998Z,95.66
2019-01-06T02:26:41.476Z,95.74
2019-01-06T02:29:33.650Z,95.69
2019-01-06T02:32:36.180Z,95.69
2019-01-06T02:35:20.408Z,95.57
2019-01-06T02:38:10.357Z,95.18
2019-01-06T02:40:58.455Z,94.86
2019-01-06T02:43:56.831Z,95.32
2019-01-06T02:46:58.295Z,95.54
2019-01-06T02:49:46.458Z,95.00
2019-01-06T02:52:36.376Z,95.18
2019-01-06T02:55:25.005Z,95.24
2019-01-06T02:58:13.383Z,95.57
2019-01-06T03:01:01.523Z,95.38
2019-01-06T03:03:51.483Z,95.20
2019-01-06T03:06:40.935Z,95.09
2019-01-06T03:09:23.471Z,94.48
2019-01-06T03:12:21.017Z,94.81
2019-01-06T03:15:28.570Z,95.06
2019-01-06T03:18:26.995Z,95.03
2019-01-06T03:21:25.950Z,94.69
2019-01-06T03:24:26.603Z,94.35
2019-01-06T03:27:24.957Z,94.16
2019-01-06T03:30:20.552Z,93.66
2019-01-06T03:33:04.541Z,94.02
2019-01-06T03:36:09.351Z,94.41
2019-01-06T03:38:57.676Z,94.05
2019-01-06T03:41:59.445Z,94.84
2019-01-06T03:44:57.003Z,94.98
2019-01-06T03:47:45.312Z,94.86
2019-01-06T03:50:36.353Z,94.68
2019-01-06T03:53:37.339Z,94.69
2019-01-06T03:56:25.679Z,94.99
2019-01-06T03:59:06.793Z,94.89
2019-01-06T04:01:59.282Z,94.70
2019-01-06T04:04:47.760Z,93.59
2019-01-06T04:07:35.997Z,93.62
2019-01-06T04:10:44.186Z,93.72
2019-01-06T04:13:37.422Z,94.39
2019-01-06T04:16:37.194Z,94.44
2019-01-06T04:19:25.244Z,93.71
2019-01-06T04:22:26.807Z,93.99
2019-01-06T04:25:09.570Z,94.61
2019-01-06T04:28:01.863Z,94.52
2019-01-06T04:31:09.460Z,94.91
2019-01-06T04:33:57.558Z,94.91
2019-01-06T04:36:46.877Z,95.36
2019-01-06T04:39:42.235Z,95.38
2019-01-06T04:42:30.149Z,95.13
2019-01-06T04:45:19.547Z,95.00
2019-01-06T04:48:07.679Z,95.11
2019-01-06T04:50:57.211Z,95.28
2019-01-06T04:53:52.405Z,95.44
2019-01-06T04:56:41.830Z,95.33
2019-01-06T04:59:40.292Z,95.21
2019-01-06T05:02:45.136Z,95.25
2019-01-06T05:05:34.508Z,94.67
2019-01-06T05:08:22.658Z,94.62
2019-01-06T05:11:10.857Z,94.66
2019-01-06T05:14:09.438Z,94.79
2019-01-06T05:17:01.889Z,94.76
2019-01-06T05:19:58.291Z,95.05
2019-01-06T05:23:06.052Z,95.26
2019-01-06T05:25:55.522Z,95.52
2019-01-06T05:28:43.664Z,95.54
2019-01-06T05:31:32.042Z,95.69
2019-01-06T05:34:20.130Z,95.93
2019-01-06T05:37:12.657Z,95.86
2019-01-06T05:40:11.021Z,95.43
2019-01-06T05:42:59.132Z,95.48
2019-01-06T05:45:41.313Z,95.60
2019-01-06T05:48:43.313Z,95.71
2019-01-06T05:51:38.841Z,95.75
2019-01-06T05:54:26.915Z,95.87
2019-01-06T05:57:09.638Z,95.95
2019-01-06T06:00:14.431Z,95.85
2019-01-06T06:03:02.800Z,95.68
2019-01-06T06:06:02.505Z,95.71
2019-01-06T06:08:58.157Z,95.78
2019-01-06T06:11:59.606Z,95.69
2019-01-06T06:15:01.166Z,95.60
2019-01-06T06:18:05.518Z,95.46
2019-01-06T06:20:52.998Z,95.59
2019-01-06T06:23:38.146Z,95.52
2019-01-06T06:26:34.321Z,95.48
2019-01-06T06:29:37.456Z,95.50
2019-01-06T06:32:25.683Z,95.46
2019-01-06T06:35:13.217Z,95.45
2019-01-06T06:37:56.421Z,95.63
2019-01-06T06:40:44.672Z,95.32
2019-01-06T22:03:39.971Z,93.69
2019-01-06T22:06:28.264Z,93.58
2019-01-06T22:09:26.814Z,93.17
2019-01-06T22:12:14.794Z,92.64
2019-01-06T22:15:03.298Z,92.95
2019-01-06T22:18:11.085Z,92.84
2019-01-06T22:21:01.640Z,92.67
2019-01-06T22:23:57.188Z,92.48
2019-01-06T22:26:46.494Z,92.35
2019-01-06T22:29:34.563Z,92.44
2019-01-06T22:32:21.942Z,92.06
2019-01-06T22:35:24.651Z,92.28
2019-01-06T22:38:13.189Z,92.06
2019-01-06T22:41:05.373Z,91.99
2019-01-06T22:43:50.761Z,91.81
2019-01-06T22:46:43.322Z,91.56
2019-01-06T22:49:34.419Z,91.87
2019-01-06T22:52:24.422Z,91.68
2019-01-06T22:55:26.419Z,91.65
2019-01-06T22:58:22.763Z,91.29
2019-01-06T23:01:27.724Z,91.35
2019-01-06T23:04:08.696Z,91.46
2019-01-06T23:07:12.297Z,91.38
2019-01-06T23:10:20.228Z,91.44
2019-01-06T23:13:19.146Z,91.14
2019-01-06T23:16:07.454Z,90.69
2019-01-06T23:18:55.566Z,90.69
2019-01-06T23:21:43.658Z,90.21
2019-01-06T23:24:36.152Z,90.65
2019-01-06T23:27:23.286Z,90.33
2019-01-06T23:30:14.814Z,90.73
2019-01-06T23:33:03.148Z,90.97
2019-01-06T23:36:04.530Z,90.83
2019-01-06T23:38:54.369Z,90.77
2019-01-06T23:41:53.174Z,91.04
2019-01-06T23:44:42.541Z,91.27
2019-01-06T23:47:35.024Z,91.11
2019-01-06T23:50:24.841Z,91.31
2019-01-06T23:53:23.519Z,91.40
2019-01-06T23:56:18.031Z,91.05
2019-01-06T23:59:07.455Z,90.89
